Log in

NASDAQ:LSXMKLiberty Sirius XM Group Series C Institutional Ownership

$36.47
+0.57 (+1.59 %)
(As of 05/29/2020 04:00 PM ET)
Add
Compare
Today's Range
$35.42
Now: $36.47
$36.64
50-Day Range
$29.47
MA: $32.27
$36.22
52-Week Range
$23.01
Now: $36.47
$51.36
Volume2.84 million shs
Average Volume1.63 million shs
Market Capitalization$7.38 billion
P/E Ratio18.99
Dividend YieldN/A
Beta1.3

Institutional Ownership

Institutional Ownership Changes (13F Filings) for Liberty Sirius XM Group Series C (NASDAQ:LSXMK)

Institutional Ownership Percentage: 79.36%

Institutional Buying and Selling by Quarter


Liberty Sirius XM Group Series C (NASDAQ LSXMK) Institutional Buying and Selling

Reporting DateHedge FundShares HeldMarket Value% of PortfolioQuarterly Change in SharesOwnership in Company
5/28/2020Optimal Asset Management Inc.181,247$5.73M0.5%+151.9%0.090%
5/26/2020Morgan Stanley259,461$8.20M0.0%-25.7%0.128%
5/22/2020FDx Advisors Inc.77,769$1.77M0.1%N/A0.038%
5/22/2020Clearbridge Investments LLC6,058,771$191.58M0.2%-3.9%2.993%
5/21/2020HighTower Advisors LLC19,862$0.63M0.0%-3.8%0.010%
5/19/2020APG Asset Management N.V.227,340$7.19M0.0%+51.3%0.112%
5/18/2020Voloridge Investment Management LLC37,907$1.20M0.0%-59.9%0.019%
5/18/2020Advisor Group Holdings Inc.8,518$0.27M0.0%N/A0.004%
5/18/2020Pin Oak Investment Advisors Inc.31,500$1M1.0%N/A0.016%
5/15/2020Kingstown Capital Management L.P.600,000$18.97M2.9%+50.0%0.296%
5/15/2020AQR Capital Management LLC90,463$2.86M0.0%-58.6%0.045%
5/15/2020FPR Partners LLC5,880,595$185.94M7.6%-16.3%2.905%
5/15/2020Engineers Gate Manager LP52,382$1.66M0.1%-49.1%0.026%
5/15/2020Paloma Partners Management Co3,625$0.12M0.0%N/A0.002%
5/15/2020Tower Research Capital LLC TRC 8,055$0.26M0.0%+152.7%0.004%
5/15/2020Invesco Ltd.94,088$2.98M0.0%-23.7%0.046%
5/15/2020Morgan Stanley259,461$8.20M0.0%-25.7%0.128%
5/15/2020CSS LLC IL6,295$0.20M0.0%-81.6%0.003%
5/15/2020APG Asset Management N.V.227,340$7.19M0.0%+51.3%0.112%
5/15/2020Two Sigma Advisers LP287,600$9.09M0.0%-12.8%0.142%
5/15/2020Northern Right Capital Management L.P.45,351$1.43M2.1%N/A0.022%
5/15/2020Loomis Sayles & Co. L P454,111$14.36M0.0%-3.3%0.224%
5/14/2020Simmons Bank10,441$0.33M0.0%-23.6%0.005%
5/14/2020Caisse DE Depot ET Placement DU Quebec24,100$0.76M0.0%-72.5%0.012%
5/14/2020Eaton Vance Management85,129$2.69M0.0%+31.7%0.042%
5/14/2020Baupost Group LLC MA1,254,100$39.66M0.6%N/A0.620%
5/14/2020Wells Fargo & Company MN828,081$26.18M0.0%-3.0%0.409%
5/14/2020Simcoe Capital Management LLC1,126,342$35.62M10.9%+59.9%0.556%
5/14/2020GABELLI & Co INVESTMENT ADVISERS INC.566,500$17.91M2.7%-8.8%0.280%
5/14/2020Gamco Investors INC. ET AL544,564$17.22M0.2%-16.1%0.269%
5/14/2020Geode Capital Management LLC1,995,824$63.05M0.0%+5.6%0.986%
5/14/2020Seeyond46,875$0.27M0.0%-11.9%0.023%
5/14/2020Janus Henderson Group PLC723,762$22.89M0.0%+588.2%0.358%
5/14/2020ThornTree Capital Partners LP144,357$4.57M1.3%-74.1%0.071%
5/14/2020Nomura Asset Management Co. Ltd.30,201$0.96M0.0%+12.1%0.015%
5/14/2020Swift Run Capital Management LLC120,082$3.80M5.4%-18.3%0.059%
5/14/2020Legal & General Group Plc1,233,305$39.10M0.0%+0.5%0.609%
5/14/2020Crescent Park Management L.P.685,484$21.68M5.3%+77.5%0.339%
5/14/2020Aviva PLC35,868$1.13M0.0%-3.7%0.018%
5/14/2020APG Asset Management N.V.38,100$1.30M0.0%-74.6%0.019%
5/14/2020Alliancebernstein L.P.122,726$3.88M0.0%+25.9%0.061%
5/14/2020M&T Bank Corp10,737$0.34M0.0%-57.3%0.005%
5/14/2020Bleichroeder LP6,552$0.21M0.3%-96.8%0.003%
5/14/2020Grantham Mayo Van Otterloo & Co. LLC57,969$1.83M0.0%N/A0.029%
5/14/2020Xact Kapitalforvaltning AB40,823$1.29M0.0%+11.0%0.020%
5/14/2020Nuveen Asset Management LLC801,770$25.35M0.0%+7.5%0.396%
5/14/2020Korea Investment CORP40,500$1.28M0.0%N/A0.020%
5/14/2020Makena Capital Management LLC16,699$0.53M0.5%N/A0.008%
5/13/2020PFS Investments Inc.16,233$0.51M0.0%+30.7%0.008%
5/13/2020Canada Pension Plan Investment Board256,621$8.11M0.0%+17.1%0.127%
5/13/2020FDx Advisors Inc.77,769$1.77M0.1%N/A0.038%
5/13/2020AlphaCrest Capital Management LLC30,000$0.95M0.1%+57.9%0.015%
5/13/2020King Luther Capital Management Corp177,399$5.61M0.0%-9.7%0.088%
5/13/2020Parametric Portfolio Associates LLC664,095$21M0.0%-0.5%0.328%
5/13/2020Treasurer of the State of North Carolina66,121$2.09M0.0%+66.8%0.033%
5/13/2020BNP Paribas Arbitrage SA1,397,519$44.19M0.1%+182.4%0.690%
5/13/2020Horizon Kinetics Asset Management LLC1,895,265$59.93M2.7%-8.7%0.936%
5/13/2020Federated Hermes Inc.13,410$0.42M0.0%-99.7%0.007%
5/13/2020Pinnacle Associates Ltd.100,364$3.17M0.1%-22.9%0.050%
5/13/2020Toronto Dominion Bank22,207$0.70M0.0%-22.6%0.011%
5/13/2020Healthcare of Ontario Pension Plan Trust Fund146,278$4.63M0.0%-70.7%0.072%
5/13/2020Mitsubishi UFJ Trust & Banking Corp140,804$4.45M0.0%+11.9%0.070%
5/13/2020US Bancorp DE23,726$0.75M0.0%-1.4%0.012%
5/12/2020New South Capital Management Inc.1,435,049$45.38M2.0%-13.4%0.709%
5/12/2020CNA Financial Corp8,098$0.26M0.1%N/A0.004%
5/12/2020Flagship Harbor Advisors LLC1,191$38K0.0%N/A0.001%
5/12/2020Sowell Financial Services LLC3,592$0.11M0.0%+1,831.2%0.002%
5/12/2020Principal Financial Group Inc.4,280,464$135.35M0.1%-0.5%2.115%
5/12/2020People s United Financial Inc.7,078$0.22M0.0%+10.7%0.003%
5/12/2020Victory Capital Management Inc.87,582$2.77M0.0%+457.2%0.043%
5/12/2020JPMorgan Chase & Co.6,526,145$206.36M0.0%+16.6%3.224%
5/12/2020California Public Employees Retirement System1,325,643$41.92M0.1%+0.3%0.655%
5/11/2020Ensign Peak Advisors Inc122,000$3.86M0.0%-64.1%0.060%
5/11/2020Acadian Asset Management LLC511,051$16.16M0.1%+80.1%0.252%
5/11/2020State Street Corp3,813,218$120.57M0.0%+1.9%1.884%
5/11/2020Fjarde AP Fonden Fourth Swedish National Pension Fund57,344$1.81M0.0%-4.8%0.028%
5/11/2020RMB Capital Management LLC185,830$5.88M0.3%N/A0.092%
5/11/2020Blair William & Co. IL11,120$0.35M0.0%+10.3%0.005%
5/11/2020Cardan Capital Partners LLC43,879$1.39M0.2%+4.1%0.022%
5/11/2020Mitsubishi UFJ Kokusai Asset Management Co. Ltd.24,413$0.77M0.0%-6.0%0.012%
5/11/2020Shell Asset Management Co.8,097$0.26M0.0%-13.0%0.004%
5/8/2020Alberta Investment Management Corp218,280$6.90M0.1%-12.1%0.107%
5/8/2020Swiss National Bank631,790$19.98M0.0%+22.3%0.311%
5/8/2020Oppenheimer & Co. Inc.13,190$0.42M0.0%+6.1%0.006%
5/7/2020Blume Capital Management Inc.3,400$0.11M0.1%N/A0.002%
5/7/2020Anchor Capital Advisors LLC980,899$31.02M0.9%-0.1%0.483%
5/7/2020Asset Management Advisors LLC162,180$5.13M6.0%-5.1%0.080%
5/7/2020Tiedemann Advisors LLC8,864$0.28M0.0%+58.1%0.004%
5/6/2020Zurcher Kantonalbank Zurich Cantonalbank222,767$7.04M0.1%+1.7%0.110%
5/6/2020First Manhattan Co.2,709,032$85.66M0.6%-1.1%1.334%
5/6/2020Russell Investments Group Ltd.146,018$4.59M0.0%-25.6%0.072%
5/6/2020Bank of New York Mellon Corp612,315$19.36M0.0%-3.9%0.302%
5/6/2020Rhumbline Advisers147,183$4.65M0.0%+9.3%0.072%
5/6/2020New York State Common Retirement Fund254,000$8.03M0.0%-1.4%0.125%
5/6/2020Wetherby Asset Management Inc.124,039$3.92M0.4%-6.1%0.061%
5/6/2020Vestmark Advisory Solutions Inc.12,526$0.40M0.1%-4.7%0.006%
5/6/2020Fuller & Thaler Asset Management Inc.79,727$2.52M0.0%+16.8%0.039%
5/5/2020Mad River Investors100,105$3.17M4.9%-3.6%0.049%
5/5/2020Insight 2811 Inc.6,400$0.20M0.1%-28.1%0.003%
5/5/2020Nissay Asset Management Corp Japan ADV15,486$0.49M0.0%+2.8%0.008%
(Data available from 1/1/2016 forward)
This page was last updated on 5/30/2020 by MarketBeat.com Staff

Enter your email address below to receive a concise daily summary of analysts' upgrades, downgrades and new coverage with MarketBeat.com's FREE daily email newsletter.